createdAt,value
2022-12-25T00:02:25.760Z,7.80
2022-12-25T00:05:47.478Z,7.80
2022-12-25T00:09:10.384Z,7.80
2022-12-25T00:12:31.929Z,7.80
2022-12-25T00:15:53.720Z,7.80
2022-12-25T00:19:15.265Z,7.70
2022-12-25T00:22:36.930Z,7.70
2022-12-25T00:26:00.073Z,7.80
2022-12-25T00:29:21.658Z,7.80
2022-12-25T00:32:43.192Z,7.80
2022-12-25T00:36:05.672Z,7.80
2022-12-25T00:39:27.330Z,7.80
2022-12-25T00:42:50.477Z,7.80
2022-12-25T00:46:12.718Z,7.80
2022-12-25T00:49:34.338Z,7.80
2022-12-25T00:52:55.903Z,7.80
2022-12-25T00:56:17.903Z,7.80
2022-12-25T00:59:40.794Z,7.80
2022-12-25T01:03:02.422Z,7.90
2022-12-25T01:06:24.285Z,7.90
2022-12-25T01:09:45.942Z,8.00
2022-12-25T01:13:07.509Z,8.00
2022-12-25T01:16:30.557Z,8.00
2022-12-25T01:19:52.156Z,8.10
2022-12-25T01:23:14.061Z,8.00
2022-12-25T01:26:35.599Z,8.00
2022-12-25T01:29:57.135Z,8.00
2022-12-25T01:33:19.993Z,8.00
2022-12-25T01:36:41.551Z,8.00
2022-12-25T01:40:03.349Z,8.00
2022-12-25T01:43:26.948Z,8.00
2022-12-25T01:46:48.488Z,8.00
2022-12-25T01:50:11.357Z,8.00
2022-12-25T01:53:33.255Z,8.00
2022-12-25T01:56:57.683Z,8.00
2022-12-25T02:00:19.366Z,8.00
2022-12-25T02:03:40.910Z,7.90
2022-12-25T02:07:03.803Z,7.90
2022-12-25T02:10:25.355Z,7.90
2022-12-25T02:13:46.908Z,7.90
2022-12-25T02:17:11.960Z,7.80
2022-12-25T02:20:48.424Z,7.70
2022-12-25T02:24:23.949Z,7.70
2022-12-25T02:28:03.160Z,7.60
2022-12-25T02:31:30.394Z,7.60
2022-12-25T02:34:54.446Z,7.60
2022-12-25T02:38:16.773Z,7.60
2022-12-25T02:41:39.985Z,7.50
2022-12-25T02:45:01.910Z,7.50
2022-12-25T02:48:26.714Z,7.50
2022-12-25T02:51:50.945Z,7.50
2022-12-25T02:55:14.187Z,7.50
2022-12-25T02:58:37.622Z,7.60
2022-12-25T03:01:59.216Z,7.60
2022-12-25T03:05:24.115Z,7.60
2022-12-25T03:08:47.967Z,7.60
2022-12-25T03:12:13.246Z,7.60
2022-12-25T03:15:34.873Z,7.60
2022-12-25T03:18:57.026Z,7.70
2022-12-25T03:22:23.154Z,7.70
2022-12-25T03:25:44.710Z,7.70
2022-12-25T03:29:06.256Z,7.70
2022-12-25T03:32:33.834Z,7.70
2022-12-25T03:36:01.034Z,7.70
2022-12-25T03:39:25.845Z,7.70
2022-12-25T03:42:50.619Z,7.60
2022-12-25T03:46:14.633Z,7.60
2022-12-25T03:49:39.063Z,7.60
2022-12-25T03:53:02.770Z,7.60
2022-12-25T03:56:26.760Z,7.60
2022-12-25T03:59:48.340Z,7.50
2022-12-25T04:03:09.922Z,7.50
2022-12-25T04:06:31.473Z,7.50
2022-12-25T04:09:53.018Z,7.50
2022-12-25T04:13:16.121Z,7.50
2022-12-25T04:16:37.658Z,7.50
2022-12-25T04:19:59.197Z,7.50
2022-12-25T04:23:20.762Z,7.60
2022-12-25T04:26:42.306Z,7.60
2022-12-25T04:30:06.074Z,7.60
2022-12-25T04:33:27.622Z,7.60
2022-12-25T04:36:49.195Z,7.60
2022-12-25T04:40:10.969Z,7.50
2022-12-25T04:43:32.530Z,7.50
2022-12-25T04:46:55.530Z,7.50
2022-12-25T04:50:17.231Z,7.50
2022-12-25T04:53:38.756Z,7.50
2022-12-25T04:57:00.293Z,7.50
2022-12-25T05:00:23.577Z,7.50
2022-12-25T05:03:46.499Z,7.50
2022-12-25T05:07:08.069Z,7.50
2022-12-25T05:10:29.613Z,7.50
2022-12-25T05:13:51.138Z,7.50
2022-12-25T05:17:12.740Z,7.50
2022-12-25T05:20:40.014Z,7.40
2022-12-25T05:24:02.075Z,7.50
2022-12-25T05:27:23.614Z,7.50
2022-12-25T05:30:45.369Z,7.50
2022-12-25T05:34:06.949Z,7.40
2022-12-25T05:37:29.880Z,7.40
2022-12-25T05:40:51.729Z,7.50
2022-12-25T05:44:13.390Z,7.50
2022-12-25T05:47:34.933Z,7.50
2022-12-25T05:50:56.471Z,7.60
2022-12-25T05:54:19.357Z,7.50
2022-12-25T05:57:40.895Z,7.50
2022-12-25T06:01:02.451Z,7.50
2022-12-25T06:04:23.996Z,7.50
2022-12-25T06:07:45.556Z,7.50
2022-12-25T06:11:13.940Z,7.60
2022-12-25T06:14:35.820Z,7.60
2022-12-25T06:17:59.762Z,7.60
2022-12-25T06:21:21.333Z,7.60
2022-12-25T06:24:42.950Z,7.60
2022-12-25T06:28:06.072Z,7.60
2022-12-25T06:31:27.743Z,7.60
2022-12-25T06:34:49.329Z,7.60
2022-12-25T06:38:10.850Z,7.60
2022-12-25T06:41:32.415Z,7.60
2022-12-25T06:44:55.285Z,7.60
2022-12-25T06:48:16.831Z,7.60
2022-12-25T06:51:38.401Z,7.60
2022-12-25T06:55:01.089Z,7.60
2022-12-25T06:58:22.640Z,7.60
2022-12-25T07:01:46.897Z,7.60
2022-12-25T07:05:08.827Z,7.60
2022-12-25T07:08:30.623Z,7.60
2022-12-25T07:11:52.332Z,7.60
2022-12-25T07:15:13.938Z,7.70
2022-12-25T07:18:36.905Z,7.60
2022-12-25T07:21:58.465Z,7.70
2022-12-25T07:25:19.997Z,7.70
2022-12-25T07:28:41.556Z,7.80
2022-12-25T07:32:03.304Z,7.80
2022-12-25T07:35:26.284Z,7.80
2022-12-25T07:38:48.221Z,7.80
2022-12-25T07:42:09.761Z,7.90
2022-12-25T07:45:31.376Z,7.90
2022-12-25T07:48:53.100Z,7.90
2022-12-25T07:52:15.969Z,7.90
2022-12-25T07:55:37.531Z,7.90
2022-12-25T07:58:59.083Z,7.90
2022-12-25T08:02:21.020Z,8.00
2022-12-25T08:05:42.760Z,8.00
2022-12-25T08:09:07.927Z,8.10
2022-12-25T08:12:29.456Z,8.10
2022-12-25T08:15:51.001Z,8.10
2022-12-25T08:19:12.809Z,8.10
2022-12-25T08:22:34.344Z,8.00
2022-12-25T08:26:04.528Z,8.00
2022-12-25T08:29:27.255Z,8.10
2022-12-25T08:32:48.836Z,8.30
2022-12-25T08:36:11.185Z,8.50
2022-12-25T08:39:32.975Z,8.60
2022-12-25T08:42:56.866Z,8.60
2022-12-25T08:46:18.533Z,8.60
2022-12-25T08:49:40.180Z,8.60
2022-12-25T08:53:02.393Z,8.70
2022-12-25T08:56:24.694Z,8.70
2022-12-25T08:59:48.297Z,8.70
2022-12-25T09:03:09.908Z,8.70
2022-12-25T09:06:31.652Z,8.70
2022-12-25T09:09:53.246Z,8.80
2022-12-25T09:13:14.804Z,8.80
2022-12-25T09:16:37.690Z,8.80
2022-12-25T09:19:59.322Z,8.80
2022-12-25T09:23:20.865Z,8.80
2022-12-25T09:26:42.438Z,8.70
2022-12-25T09:30:04.410Z,8.70
2022-12-25T09:33:27.324Z,8.60
2022-12-25T09:36:48.868Z,8.70
2022-12-25T09:40:13.444Z,8.70
2022-12-25T09:43:39.014Z,8.70
2022-12-25T09:47:03.099Z,8.70
2022-12-25T09:50:32.388Z,8.70
2022-12-25T09:53:58.672Z,8.80
2022-12-25T09:57:20.438Z,8.80
2022-12-25T10:00:43.149Z,8.90
2022-12-25T10:04:17.135Z,8.90
2022-12-25T10:07:43.261Z,8.90
2022-12-25T10:11:21.853Z,8.90
2022-12-25T10:14:49.478Z,9.00
2022-12-25T10:18:27.126Z,9.10
2022-12-25T10:21:51.315Z,9.20
2022-12-25T10:25:17.205Z,9.40
2022-12-25T10:28:40.955Z,9.60
2022-12-25T10:32:02.514Z,9.70
2022-12-25T10:35:25.088Z,9.90
2022-12-25T10:38:46.848Z,10.10
2022-12-25T10:42:16.693Z,10.30
2022-12-25T10:45:45.323Z,10.50
2022-12-25T10:49:11.296Z,10.80
2022-12-25T10:52:32.940Z,11.10
2022-12-25T10:55:55.600Z,11.30
2022-12-25T10:59:18.592Z,11.50
2022-12-25T11:02:41.066Z,11.50
2022-12-25T11:06:03.056Z,11.60
2022-12-25T11:09:24.733Z,11.60
2022-12-25T11:12:46.588Z,11.50
2022-12-25T11:16:13.675Z,11.40
2022-12-25T11:19:35.535Z,11.40
2022-12-25T11:22:57.449Z,11.40
2022-12-25T11:26:19.099Z,11.50
2022-12-25T11:29:43.611Z,11.70
2022-12-25T11:33:10.330Z,11.90
2022-12-25T11:36:41.797Z,12.20
2022-12-25T11:40:03.808Z,12.40
2022-12-25T11:43:29.908Z,12.50
2022-12-25T11:46:52.293Z,12.60
2022-12-25T11:50:22.370Z,12.70
2022-12-25T11:53:46.868Z,12.70
2022-12-25T11:57:11.309Z,12.80
2022-12-25T12:00:33.469Z,12.80
2022-12-25T12:03:55.290Z,12.80
2022-12-25T12:07:21.638Z,12.80
2022-12-25T12:10:52.964Z,12.80
2022-12-25T12:14:21.166Z,12.70
2022-12-25T12:17:42.716Z,12.70
2022-12-25T12:21:05.558Z,12.70
2022-12-25T12:24:33.382Z,12.70
2022-12-25T12:28:02.842Z,12.70
2022-12-25T12:31:36.106Z,12.80
2022-12-25T12:34:57.900Z,12.90
2022-12-25T12:38:20.881Z,12.90
2022-12-25T12:41:45.367Z,12.90
2022-12-25T12:45:08.750Z,12.80
2022-12-25T12:48:37.031Z,12.80
2022-12-25T12:52:06.186Z,13.00
2022-12-25T12:55:29.127Z,13.20
2022-12-25T12:58:52.042Z,13.30
2022-12-25T13:02:26.442Z,13.40
2022-12-25T13:05:50.224Z,13.40
2022-12-25T13:09:18.729Z,13.40
2022-12-25T13:12:40.555Z,13.30
2022-12-25T13:16:04.233Z,13.20
2022-12-25T13:19:27.809Z,13.10
2022-12-25T13:22:52.943Z,13.10
2022-12-25T13:26:15.860Z,13.00
2022-12-25T13:29:38.135Z,13.00
2022-12-25T13:33:01.371Z,13.00
2022-12-25T13:36:23.019Z,12.90
2022-12-25T13:39:47.591Z,12.90
2022-12-25T13:43:10.701Z,12.80
2022-12-25T13:46:32.276Z,12.80
2022-12-25T13:49:56.305Z,12.80
2022-12-25T13:53:17.876Z,12.80
2022-12-25T13:56:45.938Z,12.70
2022-12-25T14:00:16.220Z,12.60
2022-12-25T14:03:40.168Z,12.60
2022-12-25T14:07:09.396Z,12.50
2022-12-25T14:10:33.683Z,12.40
2022-12-25T14:13:57.360Z,12.30
2022-12-25T14:17:19.267Z,12.20
2022-12-25T14:20:42.409Z,12.10
2022-12-25T14:24:11.888Z,12.10
2022-12-25T14:27:33.557Z,12.00
2022-12-25T14:30:55.203Z,12.00
2022-12-25T14:34:18.453Z,12.10
2022-12-25T14:37:40.796Z,12.00
2022-12-25T14:41:04.711Z,11.90
2022-12-25T14:44:33.652Z,11.80
2022-12-25T14:47:56.146Z,11.60
2022-12-25T14:51:17.888Z,11.50
2022-12-25T14:54:39.594Z,11.40
2022-12-25T14:58:03.815Z,11.40
2022-12-25T15:01:27.668Z,11.40
2022-12-25T15:04:49.296Z,11.40
2022-12-25T15:08:24.104Z,11.50
2022-12-25T15:11:47.471Z,11.50
2022-12-25T15:15:11.530Z,11.60
2022-12-25T15:18:36.513Z,11.60
2022-12-25T15:21:58.076Z,11.60
2022-12-25T15:25:19.631Z,11.60
2022-12-25T15:28:41.394Z,11.60
2022-12-25T15:32:04.481Z,11.50
2022-12-25T15:35:26.028Z,11.60
2022-12-25T15:38:47.611Z,11.70
2022-12-25T15:42:12.934Z,11.70
2022-12-25T15:45:34.489Z,11.70
2022-12-25T15:48:57.528Z,11.70
2022-12-25T15:52:19.187Z,11.70
2022-12-25T15:55:40.933Z,11.60
2022-12-25T15:59:02.508Z,11.60
2022-12-25T16:02:24.249Z,11.70
2022-12-25T16:05:47.587Z,11.80
2022-12-25T16:09:09.874Z,11.80
2022-12-25T16:12:31.424Z,11.90
2022-12-25T16:15:52.984Z,11.90
2022-12-25T16:19:14.633Z,12.00
2022-12-25T16:22:37.951Z,11.90
2022-12-25T16:25:59.786Z,11.90
2022-12-25T16:29:21.402Z,11.90
2022-12-25T16:32:43.554Z,11.90
2022-12-25T16:36:05.455Z,11.80
2022-12-25T16:39:28.490Z,11.70
2022-12-25T16:42:50.064Z,11.70
2022-12-25T16:46:12.525Z,11.60
2022-12-25T16:49:34.191Z,11.50
2022-12-25T16:52:55.743Z,11.50
2022-12-25T16:56:21.568Z,11.50
2022-12-25T16:59:43.864Z,11.50
2022-12-25T17:03:05.504Z,11.50
2022-12-25T17:06:27.832Z,11.40
2022-12-25T17:09:49.770Z,11.30
2022-12-25T17:13:12.676Z,11.20
2022-12-25T17:16:35.370Z,11.10
2022-12-25T17:19:57.053Z,11.00
2022-12-25T17:23:18.752Z,11.00
2022-12-25T17:26:40.518Z,11.00
2022-12-25T17:30:05.163Z,11.10
2022-12-25T17:33:26.901Z,11.30
2022-12-25T17:36:48.439Z,11.40
2022-12-25T17:40:10.368Z,11.60
2022-12-25T17:43:32.330Z,11.70
2022-12-25T17:46:55.285Z,11.70
2022-12-25T17:50:17.004Z,11.70
2022-12-25T17:53:39.414Z,11.70
2022-12-25T17:57:01.192Z,11.70
2022-12-25T18:00:22.782Z,11.80
2022-12-25T18:03:46.013Z,11.80
2022-12-25T18:07:07.708Z,11.70
2022-12-25T18:10:29.309Z,11.60
2022-12-25T18:13:51.322Z,11.50
2022-12-25T18:17:12.873Z,11.50
2022-12-25T18:20:40.284Z,11.50
2022-12-25T18:24:02.363Z,11.50
2022-12-25T18:27:23.919Z,11.50
2022-12-25T18:30:45.954Z,11.50
2022-12-25T18:34:09.277Z,11.50
2022-12-25T18:37:39.434Z,11.50
2022-12-25T18:41:06.234Z,11.40
2022-12-25T18:44:29.091Z,11.40
2022-12-25T18:47:50.843Z,11.30
2022-12-25T18:51:15.452Z,11.30
2022-12-25T18:54:38.521Z,11.20
2022-12-25T18:58:04.293Z,11.20
2022-12-25T19:01:26.565Z,11.20
2022-12-25T19:04:48.241Z,11.20
2022-12-25T19:08:09.791Z,11.20
2022-12-25T19:11:32.674Z,11.20
2022-12-25T19:14:54.229Z,11.30
2022-12-25T19:18:16.409Z,11.30
2022-12-25T19:21:38.054Z,11.30
2022-12-25T19:24:59.615Z,11.30
2022-12-25T19:28:22.534Z,11.30
2022-12-25T19:31:44.115Z,11.30
2022-12-25T19:35:06.294Z,11.30
2022-12-25T19:38:27.895Z,11.30
2022-12-25T19:41:49.518Z,11.20
2022-12-25T19:45:12.405Z,11.20
2022-12-25T19:48:36.155Z,11.20
2022-12-25T19:51:58.598Z,11.30
2022-12-25T19:55:20.159Z,11.30
2022-12-25T19:58:42.114Z,11.40
2022-12-25T20:02:06.427Z,11.40
2022-12-25T20:05:28.580Z,11.30
2022-12-25T20:08:51.586Z,11.30
2022-12-25T20:12:13.167Z,11.30
2022-12-25T20:15:35.040Z,11.40
2022-12-25T20:18:58.255Z,11.40
2022-12-25T20:22:19.991Z,11.30
2022-12-25T20:25:41.662Z,11.30
2022-12-25T20:29:03.547Z,11.30
2022-12-25T20:32:25.117Z,11.30
2022-12-25T20:35:48.274Z,11.30
2022-12-25T20:39:11.091Z,11.30
2022-12-25T20:42:32.657Z,11.30
2022-12-25T20:45:54.241Z,11.40
2022-12-25T20:49:15.798Z,11.30
2022-12-25T20:52:38.691Z,11.20
2022-12-25T20:56:00.219Z,11.20
2022-12-25T20:59:21.781Z,11.10
2022-12-25T21:02:43.586Z,11.00
2022-12-25T21:06:05.517Z,10.90
2022-12-25T21:09:28.524Z,10.90
2022-12-25T21:12:50.076Z,10.80
2022-12-25T21:16:12.566Z,10.70
2022-12-25T21:19:34.197Z,10.70
2022-12-25T21:22:55.774Z,10.70
2022-12-25T21:26:19.912Z,10.70
2022-12-25T21:29:41.678Z,10.80
2022-12-25T21:33:03.479Z,10.90
2022-12-25T21:36:26.341Z,10.80
2022-12-25T21:39:48.730Z,10.90
2022-12-25T21:43:12.259Z,10.90
2022-12-25T21:46:34.173Z,10.90
2022-12-25T21:49:55.758Z,10.90
2022-12-25T21:53:17.858Z,10.90
2022-12-25T21:56:44.455Z,11.00
2022-12-25T22:00:08.813Z,11.00
2022-12-25T22:03:30.447Z,11.00
2022-12-25T22:06:52.436Z,11.00
2022-12-25T22:10:14.108Z,11.00
2022-12-25T22:13:36.492Z,11.00
2022-12-25T22:16:59.606Z,11.00
2022-12-25T22:20:22.452Z,10.90
2022-12-25T22:23:44.051Z,10.90
2022-12-25T22:27:05.611Z,10.90
2022-12-25T22:30:28.193Z,10.80
2022-12-25T22:33:51.140Z,10.70
2022-12-25T22:37:14.312Z,10.50
2022-12-25T22:40:36.141Z,10.30
2022-12-25T22:47:39.413Z,9.90
2022-12-25T22:51:02.985Z,9.80
2022-12-25T22:54:24.917Z,9.70
2022-12-25T22:57:46.498Z,9.70
2022-12-25T23:01:08.368Z,9.60
2022-12-25T23:04:29.973Z,9.60
2022-12-25T23:07:52.880Z,9.50
2022-12-25T23:11:14.981Z,9.50
2022-12-25T23:14:36.543Z,9.40
2022-12-25T23:17:58.100Z,9.40
2022-12-25T23:21:19.699Z,9.30
2022-12-25T23:24:42.751Z,9.30
2022-12-25T23:28:04.456Z,9.30
2022-12-25T23:31:28.675Z,9.30
2022-12-25T23:34:50.846Z,9.30
2022-12-25T23:38:12.467Z,9.30
2022-12-25T23:41:35.362Z,9.30
2022-12-25T23:44:56.930Z,9.30
2022-12-25T23:48:18.516Z,9.30
2022-12-25T23:51:40.732Z,9.20
2022-12-25T23:55:02.280Z,9.20
2022-12-25T23:58:25.396Z,9.10
